sensor_id;sensor_type;location;lat;lon;timestamp;pressure;altitude;pressure_sealevel;temperature;humidity
54910;BME280;63189;51.240;9.964;2023-04-28T00:00:00;97911.00;;;6.51;66.26
54910;BME280;63189;51.240;9.964;2023-04-28T00:02:26;97919.56;;;6.54;66.60
54910;BME280;63189;51.240;9.964;2023-04-28T00:04:52;97909.22;;;6.54;67.08
54910;BME280;63189;51.240;9.964;2023-04-28T00:07:18;97911.78;;;6.57;66.79
54910;BME280;63189;51.240;9.964;2023-04-28T00:09:43;97904.00;;;6.56;67.03
54910;BME280;63189;51.240;9.964;2023-04-28T00:12:09;97896.22;;;6.59;67.00
54910;BME280;63189;51.240;9.964;2023-04-28T00:14:34;97881.56;;;6.56;67.63
54910;BME280;63189;51.240;9.964;2023-04-28T00:16:59;97895.34;;;6.58;67.41
54910;BME280;63189;51.240;9.964;2023-04-28T00:19:25;97891.91;;;6.56;68.31
54910;BME280;63189;51.240;9.964;2023-04-28T00:21:51;97893.66;;;6.56;67.80
54910;BME280;63189;51.240;9.964;2023-04-28T00:24:16;97892.78;;;6.58;67.20
54910;BME280;63189;51.240;9.964;2023-04-28T00:26:42;97880.69;;;6.57;67.19
54910;BME280;63189;51.240;9.964;2023-04-28T00:29:07;97877.19;;;6.60;67.78
54910;BME280;63189;51.240;9.964;2023-04-28T00:31:32;97869.47;;;6.55;67.23
54910;BME280;63189;51.240;9.964;2023-04-28T00:33:59;97874.63;;;6.58;67.55
54910;BME280;63189;51.240;9.964;2023-04-28T00:36:24;97869.47;;;6.55;67.95
54910;BME280;63189;51.240;9.964;2023-04-28T00:38:50;97878.97;;;6.58;67.70
54910;BME280;63189;51.240;9.964;2023-04-28T00:41:16;97879.84;;;6.57;68.21
54910;BME280;63189;51.240;9.964;2023-04-28T00:43:48;97870.34;;;6.56;68.36
54910;BME280;63189;51.240;9.964;2023-04-28T00:46:23;97865.19;;;6.54;68.59
54910;BME280;63189;51.240;9.964;2023-04-28T00:48:50;97865.19;;;6.54;68.03
54910;BME280;63189;51.240;9.964;2023-04-28T00:51:16;97857.47;;;6.51;68.08
54910;BME280;63189;51.240;9.964;2023-04-28T00:53:43;97857.53;;;6.48;68.63
54910;BME280;63189;51.240;9.964;2023-04-28T00:56:08;97861.84;;;6.48;68.92
54910;BME280;63189;51.240;9.964;2023-04-28T00:58:34;97858.38;;;6.49;69.40
54910;BME280;63189;51.240;9.964;2023-04-28T01:01:08;97838.66;;;6.40;69.45
54910;BME280;63189;51.240;9.964;2023-04-28T01:03:36;97848.94;;;6.46;69.39
54910;BME280;63189;51.240;9.964;2023-04-28T01:06:03;97848.13;;;6.41;69.68
54910;BME280;63189;51.240;9.964;2023-04-28T01:08:34;97846.44;;;6.40;69.92
54910;BME280;63189;51.240;9.964;2023-04-28T01:10:59;97840.41;;;6.38;70.41
54910;BME280;63189;51.240;9.964;2023-04-28T01:13:26;97844.72;;;6.39;69.47
54910;BME280;63189;51.240;9.964;2023-04-28T01:15:52;97834.38;;;6.39;69.90
54910;BME280;63189;51.240;9.964;2023-04-28T01:18:19;97829.22;;;6.38;70.07
54910;BME280;63189;51.240;9.964;2023-04-28T01:20:44;97830.06;;;6.38;69.63
54910;BME280;63189;51.240;9.964;2023-04-28T01:23:14;97832.66;;;6.38;69.88
54910;BME280;63189;51.240;9.964;2023-04-28T01:25:40;97818.00;;;6.37;69.88
54910;BME280;63189;51.240;9.964;2023-04-28T01:28:06;97818.00;;;6.37;69.28
54910;BME280;63189;51.240;9.964;2023-04-28T01:30:32;97818.78;;;6.41;69.71
54910;BME280;63189;51.240;9.964;2023-04-28T01:32:57;97819.66;;;6.41;69.72
54910;BME280;63189;51.240;9.964;2023-04-28T01:35:23;97817.94;;;6.40;69.88
54910;BME280;63189;51.240;9.964;2023-04-28T01:37:48;97809.34;;;6.38;69.17
54910;BME280;63189;51.240;9.964;2023-04-28T01:40:13;97809.28;;;6.41;69.78
54910;BME280;63189;51.240;9.964;2023-04-28T01:42:39;97803.25;;;6.41;69.42
54910;BME280;63189;51.240;9.964;2023-04-28T01:45:04;97799.88;;;6.37;69.95
54910;BME280;63189;51.240;9.964;2023-04-28T01:47:30;97800.69;;;6.39;69.49
54910;BME280;63189;51.240;9.964;2023-04-28T01:49:56;97796.44;;;6.36;69.63
54910;BME280;63189;51.240;9.964;2023-04-28T01:52:21;97797.22;;;6.40;69.48
54910;BME280;63189;51.240;9.964;2023-04-28T01:54:48;97803.28;;;6.39;69.96
54910;BME280;63189;51.240;9.964;2023-04-28T01:57:14;97787.75;;;6.39;70.50
54910;BME280;63189;51.240;9.964;2023-04-28T01:59:39;97795.56;;;6.36;69.99
54910;BME280;63189;51.240;9.964;2023-04-28T02:02:05;97786.94;;;6.37;70.16
54910;BME280;63189;51.240;9.964;2023-04-28T02:04:30;97785.22;;;6.34;70.13
54910;BME280;63189;51.240;9.964;2023-04-28T02:06:56;97776.63;;;6.32;69.46
54910;BME280;63189;51.240;9.964;2023-04-28T02:09:21;97777.44;;;6.36;70.54
54910;BME280;63189;51.240;9.964;2023-04-28T02:11:46;97771.41;;;6.34;69.54
54910;BME280;63189;51.240;9.964;2023-04-28T02:14:12;97778.31;;;6.36;69.33
54910;BME280;63189;51.240;9.964;2023-04-28T02:16:37;97770.53;;;6.36;68.91
54910;BME280;63189;51.240;9.964;2023-04-28T02:19:04;97777.38;;;6.41;69.68
54910;BME280;63189;51.240;9.964;2023-04-28T02:21:29;97769.63;;;6.39;69.26
54910;BME280;63189;51.240;9.964;2023-04-28T02:23:55;97776.44;;;6.43;69.33
54910;BME280;63189;51.240;9.964;2023-04-28T02:26:20;97771.31;;;6.40;69.99
54910;BME280;63189;51.240;9.964;2023-04-28T02:28:45;97773.88;;;6.42;69.86
54910;BME280;63189;51.240;9.964;2023-04-28T02:31:11;97769.56;;;6.42;70.31
54910;BME280;63189;51.240;9.964;2023-04-28T02:33:38;97772.22;;;6.39;70.42
54910;BME280;63189;51.240;9.964;2023-04-28T02:36:05;97774.81;;;6.39;70.68
54910;BME280;63189;51.240;9.964;2023-04-28T02:38:30;97762.75;;;6.38;70.60
54910;BME280;63189;51.240;9.964;2023-04-28T02:41:00;97756.75;;;6.36;70.77
54910;BME280;63189;51.240;9.964;2023-04-28T02:43:27;97745.56;;;6.32;70.47
54910;BME280;63189;51.240;9.964;2023-04-28T02:45:52;97750.72;;;6.34;70.48
54910;BME280;63189;51.240;9.964;2023-04-28T02:48:18;97735.13;;;6.35;70.46
54910;BME280;63189;51.240;9.964;2023-04-28T02:50:43;97736.94;;;6.32;71.33
54910;BME280;63189;51.240;9.964;2023-04-28T02:53:10;97730.94;;;6.30;71.07
54910;BME280;63189;51.240;9.964;2023-04-28T02:55:36;97736.19;;;6.27;70.80
54910;BME280;63189;51.240;9.964;2023-04-28T02:58:01;97737.03;;;6.27;70.79
54910;BME280;63189;51.240;9.964;2023-04-28T03:00:28;97737.84;;;6.29;70.96
54910;BME280;63189;51.240;9.964;2023-04-28T03:02:53;97743.94;;;6.27;70.98
54910;BME280;63189;51.240;9.964;2023-04-28T03:05:19;97744.81;;;6.26;71.07
54910;BME280;63189;51.240;9.964;2023-04-28T03:07:44;97742.19;;;6.29;71.19
54910;BME280;63189;51.240;9.964;2023-04-28T03:10:09;97734.41;;;6.29;71.01
54910;BME280;63189;51.240;9.964;2023-04-28T03:12:35;97730.09;;;6.29;70.76
54910;BME280;63189;51.240;9.964;2023-04-28T03:15:00;97724.91;;;6.29;70.92
54910;BME280;63189;51.240;9.964;2023-04-28T03:17:26;97732.72;;;6.26;71.02
54910;BME280;63189;51.240;9.964;2023-04-28T03:19:51;97727.53;;;6.28;71.13
54910;BME280;63189;51.240;9.964;2023-04-28T03:22:16;97730.97;;;6.28;71.03
54910;BME280;63189;51.240;9.964;2023-04-28T03:24:42;97721.53;;;6.24;71.65
54910;BME280;63189;51.240;9.964;2023-04-28T03:27:07;97711.16;;;6.26;70.92
54910;BME280;63189;51.240;9.964;2023-04-28T03:29:32;97705.09;;;6.27;71.73
54910;BME280;63189;51.240;9.964;2023-04-28T03:31:58;97702.59;;;6.22;71.35
54910;BME280;63189;51.240;9.964;2023-04-28T03:34:23;97688.03;;;6.17;71.63
54910;BME280;63189;51.240;9.964;2023-04-28T03:36:48;97691.44;;;6.19;72.10
54910;BME280;63189;51.240;9.964;2023-04-28T03:39:13;97694.09;;;6.16;72.47
54910;BME280;63189;51.240;9.964;2023-04-28T03:41:39;97689.75;;;6.16;72.33
54910;BME280;63189;51.240;9.964;2023-04-28T03:44:04;97689.75;;;6.15;71.80
54910;BME280;63189;51.240;9.964;2023-04-28T03:46:30;97693.25;;;6.15;72.04
54910;BME280;63189;51.240;9.964;2023-04-28T03:48:55;97687.16;;;6.18;71.51
54910;BME280;63189;51.240;9.964;2023-04-28T03:51:20;97681.97;;;6.18;71.37
54910;BME280;63189;51.240;9.964;2023-04-28T03:53:47;97687.19;;;6.16;71.65
54910;BME280;63189;51.240;9.964;2023-04-28T03:56:12;97688.00;;;6.18;71.34
54910;BME280;63189;51.240;9.964;2023-04-28T03:58:37;97679.38;;;6.18;71.60
54910;BME280;63189;51.240;9.964;2023-04-28T04:01:03;97675.03;;;6.20;71.37
54910;BME280;63189;51.240;9.964;2023-04-28T04:03:30;97677.56;;;6.21;71.58
54910;BME280;63189;51.240;9.964;2023-04-28T04:05:55;97681.06;;;6.20;72.41
54910;BME280;63189;51.240;9.964;2023-04-28T04:08:21;97678.50;;;6.19;72.53
54910;BME280;63189;51.240;9.964;2023-04-28T04:10:46;97671.63;;;6.18;73.47
54910;BME280;63189;51.240;9.964;2023-04-28T04:13:13;97672.47;;;6.18;74.54
54910;BME280;63189;51.240;9.964;2023-04-28T04:15:38;97680.28;;;6.14;73.86
54910;BME280;63189;51.240;9.964;2023-04-28T04:18:03;97676.81;;;6.15;74.03
54910;BME280;63189;51.240;9.964;2023-04-28T04:20:30;97673.38;;;6.16;75.08
54910;BME280;63189;51.240;9.964;2023-04-28T04:22:56;97671.72;;;6.12;75.22
54910;BME280;63189;51.240;9.964;2023-04-28T04:25:21;97670.88;;;6.10;75.61
54910;BME280;63189;51.240;9.964;2023-04-28T04:27:50;97660.56;;;6.08;75.08
54910;BME280;63189;51.240;9.964;2023-04-28T04:30:15;97655.44;;;6.05;76.14
54910;BME280;63189;51.240;9.964;2023-04-28T04:32:41;97655.38;;;6.08;76.09
54910;BME280;63189;51.240;9.964;2023-04-28T04:35:07;97661.41;;;6.08;75.58
54910;BME280;63189;51.240;9.964;2023-04-28T04:37:33;97663.19;;;6.06;76.76
54910;BME280;63189;51.240;9.964;2023-04-28T04:39:59;97656.31;;;6.05;76.94
54910;BME280;63189;51.240;9.964;2023-04-28T04:42:24;97652.84;;;6.06;77.25
54910;BME280;63189;51.240;9.964;2023-04-28T04:44:50;97652.88;;;6.02;77.58
54910;BME280;63189;51.240;9.964;2023-04-28T04:47:15;97663.25;;;6.02;76.95
54910;BME280;63189;51.240;9.964;2023-04-28T04:49:40;97661.47;;;6.05;77.92
54910;BME280;63189;51.240;9.964;2023-04-28T04:52:06;97651.16;;;6.02;77.69
54910;BME280;63189;51.240;9.964;2023-04-28T04:54:32;97652.00;;;6.03;78.38
54910;BME280;63189;51.240;9.964;2023-04-28T04:56:57;97650.28;;;6.03;78.39
54910;BME280;63189;51.240;9.964;2023-04-28T04:59:23;97653.72;;;6.04;78.03
54910;BME280;63189;51.240;9.964;2023-04-28T05:01:48;97646.78;;;6.07;77.69
54910;BME280;63189;51.240;9.964;2023-04-28T05:04:13;97639.91;;;6.05;77.97
54910;BME280;63189;51.240;9.964;2023-04-28T05:06:39;97647.59;;;6.10;77.62
54910;BME280;63189;51.240;9.964;2023-04-28T05:09:04;97643.31;;;6.08;77.50
54910;BME280;63189;51.240;9.964;2023-04-28T05:11:30;97646.84;;;6.04;78.44
54910;BME280;63189;51.240;9.964;2023-04-28T05:13:55;97658.00;;;6.06;79.82
54910;BME280;63189;51.240;9.964;2023-04-28T05:16:20;97652.00;;;6.04;79.18
54910;BME280;63189;51.240;9.964;2023-04-28T05:18:46;97650.28;;;6.03;78.82
54910;BME280;63189;51.240;9.964;2023-04-28T05:21:11;97643.38;;;6.05;79.34
54910;BME280;63189;51.240;9.964;2023-04-28T05:23:37;97655.47;;;6.02;81.12
54910;BME280;63189;51.240;9.964;2023-04-28T05:26:03;97652.84;;;6.03;82.29
54910;BME280;63189;51.240;9.964;2023-04-28T05:28:29;97658.06;;;6.02;81.61
54910;BME280;63189;51.240;9.964;2023-04-28T05:30:55;97662.38;;;6.01;82.45
54910;BME280;63189;51.240;9.964;2023-04-28T05:33:20;97653.91;;;5.95;83.10
54910;BME280;63189;51.240;9.964;2023-04-28T05:35:46;97651.31;;;5.95;83.58
54910;BME280;63189;51.240;9.964;2023-04-28T05:38:12;97660.78;;;5.96;84.05
54910;BME280;63189;51.240;9.964;2023-04-28T05:40:37;97660.75;;;5.97;85.66
54910;BME280;63189;51.240;9.964;2023-04-28T05:43:02;97654.75;;;5.95;85.89
54910;BME280;63189;51.240;9.964;2023-04-28T05:45:29;97645.28;;;5.93;85.83
54910;BME280;63189;51.240;9.964;2023-04-28T05:47:54;97643.53;;;5.96;86.61
54910;BME280;63189;51.240;9.964;2023-04-28T05:50:20;97646.91;;;6.00;86.25
54910;BME280;63189;51.240;9.964;2023-04-28T05:52:45;97646.84;;;6.03;86.05
54910;BME280;63189;51.240;9.964;2023-04-28T05:55:11;97649.31;;;6.09;86.64
54910;BME280;63189;51.240;9.964;2023-04-28T05:57:36;97638.97;;;6.09;86.45
54910;BME280;63189;51.240;9.964;2023-04-28T06:00:03;97647.59;;;6.10;87.09
54910;BME280;63189;51.240;9.964;2023-04-28T06:02:28;97642.41;;;6.10;86.92
54910;BME280;63189;51.240;9.964;2023-04-28T06:04:53;97637.19;;;6.13;88.04
54910;BME280;63189;51.240;9.964;2023-04-28T06:07:19;97626.84;;;6.11;87.66
54910;BME280;63189;51.240;9.964;2023-04-28T06:09:45;97631.13;;;6.14;87.78
54910;BME280;63189;51.240;9.964;2023-04-28T06:12:10;97631.13;;;6.15;86.62
54910;BME280;63189;51.240;9.964;2023-04-28T06:14:36;97634.63;;;6.11;86.96
54910;BME280;63189;51.240;9.964;2023-04-28T06:17:02;97633.84;;;6.07;86.33
54910;BME280;63189;51.240;9.964;2023-04-28T06:19:28;97641.66;;;6.04;85.89
54910;BME280;63189;51.240;9.964;2023-04-28T06:21:53;97639.94;;;6.02;86.62
54910;BME280;63189;51.240;9.964;2023-04-28T06:24:19;97645.19;;;5.99;86.90
54910;BME280;63189;51.240;9.964;2023-04-28T06:26:45;97635.69;;;5.99;85.74
54910;BME280;63189;51.240;9.964;2023-04-28T06:29:10;97627.16;;;5.94;86.46
54910;BME280;63189;51.240;9.964;2023-04-28T06:31:35;97638.25;;;6.01;85.95
54910;BME280;63189;51.240;9.964;2023-04-28T06:34:01;97638.16;;;6.07;86.67
54910;BME280;63189;51.240;9.964;2023-04-28T06:36:26;97628.59;;;6.11;88.49
54910;BME280;63189;51.240;9.964;2023-04-28T06:38:52;97626.81;;;6.13;90.65
54910;BME280;63189;51.240;9.964;2023-04-28T06:41:17;97624.19;;;6.14;89.91
54910;BME280;63189;51.240;9.964;2023-04-28T06:43:43;97631.97;;;6.16;89.09
54910;BME280;63189;51.240;9.964;2023-04-28T06:46:08;97630.22;;;6.15;89.75
54910;BME280;63189;51.240;9.964;2023-04-28T06:48:36;97626.78;;;6.16;90.02
54910;BME280;63189;51.240;9.964;2023-04-28T06:51:01;97620.75;;;6.15;90.40
54910;BME280;63189;51.240;9.964;2023-04-28T06:53:27;97611.97;;;6.22;90.07
54910;BME280;63189;51.240;9.964;2023-04-28T06:55:52;97612.78;;;6.26;91.52
54910;BME280;63189;51.240;9.964;2023-04-28T06:58:18;97617.91;;;6.29;92.25
54910;BME280;63189;51.240;9.964;2023-04-28T07:00:45;97626.44;;;6.34;90.35
54910;BME280;63189;51.240;9.964;2023-04-28T07:03:11;97625.53;;;6.35;91.03
54910;BME280;63189;51.240;9.964;2023-04-28T07:05:39;97617.91;;;6.29;91.04
54910;BME280;63189;51.240;9.964;2023-04-28T07:08:05;97617.03;;;6.30;89.68
54910;BME280;63189;51.240;9.964;2023-04-28T07:10:30;97619.53;;;6.33;89.96
54910;BME280;63189;51.240;9.964;2023-04-28T07:12:55;97622.09;;;6.34;91.18
54910;BME280;63189;51.240;9.964;2023-04-28T07:15:22;97616.91;;;6.34;90.39
54910;BME280;63189;51.240;9.964;2023-04-28T07:17:50;97622.06;;;6.38;90.87
54910;BME280;63189;51.240;9.964;2023-04-28T07:20:22;97624.63;;;6.39;92.15
54910;BME280;63189;51.240;9.964;2023-04-28T07:22:48;97619.47;;;6.38;94.55
54910;BME280;63189;51.240;9.964;2023-04-28T07:25:13;97607.38;;;6.38;93.34
54910;BME280;63189;51.240;9.964;2023-04-28T07:27:38;97605.50;;;6.46;92.61
54910;BME280;63189;51.240;9.964;2023-04-28T07:30:04;97612.31;;;6.50;92.39
54910;BME280;63189;51.240;9.964;2023-04-28T07:32:30;97608.84;;;6.51;93.07
54910;BME280;63189;51.240;9.964;2023-04-28T07:34:55;97619.09;;;6.57;92.76
54910;BME280;63189;51.240;9.964;2023-04-28T07:37:21;97612.13;;;6.59;92.04
54910;BME280;63189;51.240;9.964;2023-04-28T07:39:46;97604.25;;;6.64;92.55
54910;BME280;63189;51.240;9.964;2023-04-28T07:42:11;97611.09;;;6.66;93.75
54910;BME280;63189;51.240;9.964;2023-04-28T07:44:37;97616.28;;;6.66;92.72
54910;BME280;63189;51.240;9.964;2023-04-28T07:47:02;97610.16;;;6.71;92.49
54910;BME280;63189;51.240;9.964;2023-04-28T07:49:28;97605.00;;;6.71;93.84
54910;BME280;63189;51.240;9.964;2023-04-28T07:51:54;97607.59;;;6.71;93.29
54910;BME280;63189;51.240;9.964;2023-04-28T07:54:20;97606.69;;;6.72;92.95
54910;BME280;63189;51.240;9.964;2023-04-28T07:56:46;97603.09;;;6.77;92.95
54910;BME280;63189;51.240;9.964;2023-04-28T07:59:11;97600.50;;;6.77;94.33
54910;BME280;63189;51.240;9.964;2023-04-28T08:01:38;97597.91;;;6.79;93.98
54910;BME280;63189;51.240;9.964;2023-04-28T08:04:03;97598.72;;;6.81;96.21
54910;BME280;63189;51.240;9.964;2023-04-28T08:06:28;97586.63;;;6.81;94.47
54910;BME280;63189;51.240;9.964;2023-04-28T08:08:54;97591.75;;;6.84;95.08
54910;BME280;63189;51.240;9.964;2023-04-28T08:11:20;97590.75;;;6.90;95.64
54910;BME280;63189;51.240;9.964;2023-04-28T08:13:46;97583.00;;;6.90;95.38
54910;BME280;63189;51.240;9.964;2023-04-28T08:16:11;97581.19;;;6.93;96.50
54910;BME280;63189;51.240;9.964;2023-04-28T08:18:37;97577.66;;;6.96;94.46
54910;BME280;63189;51.240;9.964;2023-04-28T08:21:03;97581.13;;;6.95;94.68
54910;BME280;63189;51.240;9.964;2023-04-28T08:23:29;97568.09;;;6.98;96.46
54910;BME280;63189;51.240;9.964;2023-04-28T08:25:56;97573.25;;;7.01;96.28
54910;BME280;63189;51.240;9.964;2023-04-28T08:28:21;97571.53;;;7.00;96.31
54910;BME280;63189;51.240;9.964;2023-04-28T08:30:46;97575.72;;;7.06;95.92
54910;BME280;63189;51.240;9.964;2023-04-28T08:33:12;97577.31;;;7.11;95.48
54910;BME280;63189;51.240;9.964;2023-04-28T08:35:37;97566.06;;;7.12;95.31
54910;BME280;63189;51.240;9.964;2023-04-28T08:38:02;97552.28;;;7.10;95.24
54910;BME280;63189;51.240;9.964;2023-04-28T08:40:29;97553.91;;;7.14;95.88
54910;BME280;63189;51.240;9.964;2023-04-28T08:42:55;97558.81;;;7.27;95.72
54910;BME280;63189;51.240;9.964;2023-04-28T08:45:22;97549.03;;;7.38;99.54
54910;BME280;63189;51.240;9.964;2023-04-28T08:47:48;97541.91;;;7.46;96.93
54910;BME280;63189;51.240;9.964;2023-04-28T08:50:14;97539.19;;;7.52;97.01
54910;BME280;63189;51.240;9.964;2023-04-28T08:52:45;97535.25;;;7.71;98.79
54910;BME280;63189;51.240;9.964;2023-04-28T08:55:12;97543.28;;;7.95;96.71
54910;BME280;63189;51.240;9.964;2023-04-28T08:57:39;97536.81;;;8.09;99.07
54910;BME280;63189;51.240;9.964;2023-04-28T09:00:07;97541.94;;;8.11;95.72
54910;BME280;63189;51.240;9.964;2023-04-28T09:02:32;97535.53;;;8.24;97.18
54910;BME280;63189;51.240;9.964;2023-04-28T09:04:58;97546.53;;;8.34;96.92
54910;BME280;63189;51.240;9.964;2023-04-28T09:07:23;97536.13;;;8.34;96.40
54910;BME280;63189;51.240;9.964;2023-04-28T09:09:49;97537.72;;;8.39;95.85
54910;BME280;63189;51.240;9.964;2023-04-28T09:12:14;97551.63;;;8.38;96.39
54910;BME280;63189;51.240;9.964;2023-04-28T09:14:40;97550.09;;;8.30;95.09
54910;BME280;63189;51.240;9.964;2023-04-28T09:17:12;97541.41;;;8.31;96.96
54910;BME280;63189;51.240;9.964;2023-04-28T09:19:39;97540.56;;;8.30;96.86
54910;BME280;63189;51.240;9.964;2023-04-28T09:22:07;97543.09;;;8.32;98.01
54910;BME280;63189;51.240;9.964;2023-04-28T09:24:37;97541.34;;;8.32;97.46
54910;BME280;63189;51.240;9.964;2023-04-28T09:27:08;97550.00;;;8.33;98.31
54910;BME280;63189;51.240;9.964;2023-04-28T09:29:36;97543.06;;;8.35;98.67
54910;BME280;63189;51.240;9.964;2023-04-28T09:32:15;97550.84;;;8.33;99.66
54910;BME280;63189;51.240;9.964;2023-04-28T09:34:47;97550.81;;;8.36;100.00
54910;BME280;63189;51.240;9.964;2023-04-28T09:37:19;97543.81;;;8.38;98.42
54910;BME280;63189;51.240;9.964;2023-04-28T09:39:46;97541.13;;;8.42;98.73
54910;BME280;63189;51.240;9.964;2023-04-28T09:42:40;97544.53;;;8.44;99.04
54910;BME280;63189;51.240;9.964;2023-04-28T09:45:06;97540.22;;;8.44;98.37
54910;BME280;63189;51.240;9.964;2023-04-28T09:47:34;97548.00;;;8.44;99.04
54910;BME280;63189;51.240;9.964;2023-04-28T09:50:01;97540.22;;;8.43;99.33
54910;BME280;63189;51.240;9.964;2023-04-28T09:52:27;97529.78;;;8.46;99.50
54910;BME280;63189;51.240;9.964;2023-04-28T09:54:54;97527.03;;;8.50;100.00
54910;BME280;63189;51.240;9.964;2023-04-28T09:57:21;97526.19;;;8.50;100.00
54910;BME280;63189;51.240;9.964;2023-04-28T09:59:49;97521.72;;;8.55;100.00
54910;BME280;63189;51.240;9.964;2023-04-28T10:02:15;97512.88;;;8.60;100.00
54910;BME280;63189;51.240;9.964;2023-04-28T10:04:48;97508.25;;;8.70;100.00
54910;BME280;63189;51.240;9.964;2023-04-28T10:07:16;97503.56;;;8.81;100.00
54910;BME280;63189;51.240;9.964;2023-04-28T10:09:46;97505.91;;;8.90;100.00
54910;BME280;63189;51.240;9.964;2023-04-28T10:12:17;97509.13;;;8.99;100.00
54910;BME280;63189;51.240;9.964;2023-04-28T10:14:43;97505.50;;;9.03;100.00
54910;BME280;63189;51.240;9.964;2023-04-28T10:17:13;97502.91;;;9.03;100.00
54910;BME280;63189;51.240;9.964;2023-04-28T10:19:48;97522.00;;;9.02;100.00
54910;BME280;63189;51.240;9.964;2023-04-28T10:25:31;97504.66;;;9.02;100.00
54910;BME280;63189;51.240;9.964;2023-04-28T10:27:58;97501.16;;;9.03;100.00
54910;BME280;63189;51.240;9.964;2023-04-28T10:30:26;97501.03;;;9.08;100.00
54910;BME280;63189;51.240;9.964;2023-04-28T10:38:15;97479.50;;;9.03;100.00
54910;BME280;63189;51.240;9.964;2023-04-28T10:40:44;97480.31;;;9.05;100.00
54910;BME280;63189;51.240;9.964;2023-04-28T10:43:33;97469.00;;;9.06;100.00
54910;BME280;63189;51.240;9.964;2023-04-28T10:58:45;97468.28;;;9.27;100.00
54910;BME280;63189;51.240;9.964;2023-04-28T11:03:47;97473.38;;;9.32;100.00
54910;BME280;63189;51.240;9.964;2023-04-28T11:06:22;97462.13;;;9.31;100.00
54910;BME280;63189;51.240;9.964;2023-04-28T11:11:21;97472.47;;;9.33;100.00
54910;BME280;63189;51.240;9.964;2023-04-28T11:13:48;97466.41;;;9.32;100.00
54910;BME280;63189;51.240;9.964;2023-04-28T11:16:22;97468.09;;;9.33;100.00
54910;BME280;63189;51.240;9.964;2023-04-28T11:18:51;97468.06;;;9.35;100.00
54910;BME280;63189;51.240;9.964;2023-04-28T11:21:22;97468.06;;;9.35;100.00
54910;BME280;63189;51.240;9.964;2023-04-28T11:23:48;97472.28;;;9.39;100.00
54910;BME280;63189;51.240;9.964;2023-04-28T11:26:15;97461.16;;;9.34;100.00
54910;BME280;63189;51.240;9.964;2023-04-28T11:28:55;97460.47;;;9.29;100.00
54910;BME280;63189;51.240;9.964;2023-04-28T11:31:22;97464.81;;;9.28;100.00
54910;BME280;63189;51.240;9.964;2023-04-28T11:33:50;97453.50;;;9.29;100.00
54910;BME280;63189;51.240;9.964;2023-04-28T11:36:34;97456.69;;;9.37;100.00
54910;BME280;63189;51.240;9.964;2023-04-28T11:39:02;97459.09;;;9.43;100.00
54910;BME280;63189;51.240;9.964;2023-04-28T11:41:30;97458.97;;;9.46;100.00
54910;BME280;63189;51.240;9.964;2023-04-28T11:43:56;97456.44;;;9.45;100.00
54910;BME280;63189;51.240;9.964;2023-04-28T11:46:24;97452.72;;;9.52;100.00
54910;BME280;63189;51.240;9.964;2023-04-28T11:49:00;97462.06;;;9.58;100.00
54910;BME280;63189;51.240;9.964;2023-04-28T11:51:37;97448.16;;;9.59;100.00
54910;BME280;63189;51.240;9.964;2023-04-28T11:54:06;97439.34;;;9.63;100.00
54910;BME280;63189;51.240;9.964;2023-04-28T11:56:38;97440.84;;;9.70;100.00
54910;BME280;63189;51.240;9.964;2023-04-28T11:59:05;97447.50;;;9.77;100.00
54910;BME280;63189;51.240;9.964;2023-04-28T12:01:34;97441.34;;;9.79;100.00
54910;BME280;63189;51.240;9.964;2023-04-28T12:04:02;97443.91;;;9.81;100.00
54910;BME280;63189;51.240;9.964;2023-04-28T12:06:28;97442.09;;;9.83;100.00
54910;BME280;63189;51.240;9.964;2023-04-28T12:08:54;97446.34;;;9.86;100.00
54910;BME280;63189;51.240;9.964;2023-04-28T12:11:20;97429.69;;;9.90;100.00
54910;BME280;63189;51.240;9.964;2023-04-28T12:14:05;97421.66;;;9.96;100.00
54910;BME280;63189;51.240;9.964;2023-04-28T12:16:39;97411.75;;;10.05;100.00
54910;BME280;63189;51.240;9.964;2023-04-28T12:19:08;97410.56;;;10.14;100.00
54910;BME280;63189;51.240;9.964;2023-04-28T12:21:36;97423.09;;;10.28;100.00
54910;BME280;63189;51.240;9.964;2023-04-28T12:24:16;97408.16;;;10.33;100.00
54910;BME280;63189;51.240;9.964;2023-04-28T12:26:41;97409.75;;;10.37;100.00
54910;BME280;63189;51.240;9.964;2023-04-28T12:29:07;97415.56;;;10.44;100.00
54910;BME280;63189;51.240;9.964;2023-04-28T12:31:52;97414.59;;;10.46;100.00
54910;BME280;63189;51.240;9.964;2023-04-28T12:34:18;97421.84;;;10.38;100.00
54910;BME280;63189;51.240;9.964;2023-04-28T12:36:44;97414.81;;;10.40;100.00
54910;BME280;63189;51.240;9.964;2023-04-28T12:39:14;97417.34;;;10.43;100.00
54910;BME280;63189;51.240;9.964;2023-04-28T12:41:41;97418.19;;;10.44;100.00
54910;BME280;63189;51.240;9.964;2023-04-28T12:44:06;97420.94;;;10.39;100.00
54910;BME280;63189;51.240;9.964;2023-04-28T12:46:32;97412.41;;;10.35;100.00
54910;BME280;63189;51.240;9.964;2023-04-28T12:48:57;97404.31;;;10.43;100.00
54910;BME280;63189;51.240;9.964;2023-04-28T12:51:23;97408.34;;;10.50;100.00
54910;BME280;63189;51.240;9.964;2023-04-28T12:53:49;97410.94;;;10.50;100.00
54910;BME280;63189;51.240;9.964;2023-04-28T12:56:15;97416.94;;;10.52;100.00
54910;BME280;63189;51.240;9.964;2023-04-28T12:58:40;97411.63;;;10.55;100.00
54910;BME280;63189;51.240;9.964;2023-04-28T13:01:06;97404.53;;;10.59;100.00
54910;BME280;63189;51.240;9.964;2023-04-28T13:03:31;97412.41;;;10.57;100.00
54910;BME280;63189;51.240;9.964;2023-04-28T13:05:57;97409.81;;;10.57;100.00
54910;BME280;63189;51.240;9.964;2023-04-28T13:08:23;97402.00;;;10.57;100.00
54910;BME280;63189;51.240;9.964;2023-04-28T13:10:48;97412.41;;;10.57;100.00
54910;BME280;63189;51.240;9.964;2023-04-28T13:13:18;97408.00;;;10.59;100.00
54910;BME280;63189;51.240;9.964;2023-04-28T13:15:44;97406.16;;;10.61;100.00
54910;BME280;63189;51.240;9.964;2023-04-28T13:18:10;97413.69;;;10.69;100.00
54910;BME280;63189;51.240;9.964;2023-04-28T13:20:57;97408.13;;;10.78;100.00
54910;BME280;63189;51.240;9.964;2023-04-28T13:23:23;97403.50;;;10.85;100.00
54910;BME280;63189;51.240;9.964;2023-04-28T13:25:49;97401.31;;;10.96;100.00
54910;BME280;63189;51.240;9.964;2023-04-28T13:28:14;97406.16;;;11.05;100.00
54910;BME280;63189;51.240;9.964;2023-04-28T13:30:40;97394.69;;;11.09;100.00